createdAt,value
2019-04-29T00:01:28.242Z,7.65
2019-04-29T00:06:33.770Z,7.74
2019-04-29T00:11:36.400Z,7.64
2019-04-29T00:16:48.278Z,7.34
2019-04-29T00:21:51.130Z,7.46
2019-04-29T00:26:53.727Z,7.46
2019-04-29T00:31:58.514Z,7.42
2019-04-29T00:37:14.478Z,7.63
2019-04-29T00:42:27.437Z,7.60
2019-04-29T00:47:31.287Z,7.52
2019-04-29T00:52:36.960Z,7.40
2019-04-29T00:57:42.575Z,7.21
2019-04-29T01:02:46.800Z,7.35
2019-04-29T01:07:49.743Z,7.36
2019-04-29T01:12:54.512Z,7.32
2019-04-29T01:18:04.297Z,7.14
2019-04-29T01:23:14.555Z,7.09
2019-04-29T01:28:27.817Z,7.17
2019-04-29T01:33:39.796Z,7.04
2019-04-29T01:38:52.208Z,7.06
2019-04-29T01:44:26.659Z,6.93
2019-04-29T01:49:38.401Z,6.70
2019-04-29T01:54:51.851Z,6.64
2019-04-29T02:00:06.755Z,6.88
2019-04-29T02:05:18.085Z,6.75
2019-04-29T02:15:47.379Z,6.94
2019-04-29T02:20:57.323Z,6.81
2019-04-29T02:26:10.645Z,6.80
2019-04-29T02:31:33.650Z,6.75
2019-04-29T02:36:55.722Z,6.80
2019-04-29T02:42:20.311Z,6.72
2019-04-29T02:47:26.406Z,6.60
2019-04-29T02:53:10.650Z,6.47
2019-04-29T02:58:58.625Z,6.54
2019-04-29T03:04:36.579Z,6.50
2019-04-29T03:10:03.816Z,6.48
2019-04-29T03:15:26.053Z,6.44
2019-04-29T03:21:12.679Z,6.31
2019-04-29T03:26:35.714Z,6.28
2019-04-29T03:31:59.185Z,6.29
2019-04-29T03:38:01.185Z,6.16
2019-04-29T03:43:02.859Z,6.21
2019-04-29T03:48:06.136Z,6.11
2019-04-29T03:53:19.246Z,6.16
2019-04-29T03:58:30.653Z,6.06
2019-04-29T04:03:38.223Z,6.15
2019-04-29T04:08:44.590Z,5.78
2019-04-29T04:13:47.231Z,5.85
2019-04-29T04:18:51.437Z,5.84
2019-04-29T04:23:57.964Z,5.82
2019-04-29T04:28:58.189Z,5.91
2019-04-29T04:34:00.510Z,5.90
2019-04-29T04:39:10.106Z,5.70
2019-04-29T04:44:44.285Z,5.81
2019-04-29T04:50:01.045Z,5.80
2019-04-29T04:55:00.724Z,5.88
2019-04-29T05:00:06.750Z,5.85
2019-04-29T05:05:09.263Z,6.02
2019-04-29T05:10:19.553Z,6.15
2019-04-29T05:15:22.101Z,6.04
2019-04-29T05:20:24.641Z,5.98
2019-04-29T05:25:31.218Z,6.17
2019-04-29T05:30:33.403Z,5.96
2019-04-29T05:35:48.746Z,6.11
2019-04-29T05:40:51.946Z,6.20
2019-04-29T05:46:24.567Z,6.36
2019-04-29T05:51:47.725Z,6.40
2019-04-29T05:56:59.257Z,6.47
2019-04-29T06:02:33.678Z,6.51
2019-04-29T06:07:41.754Z,6.38
2019-04-29T06:12:47.798Z,6.59
2019-04-29T06:17:54.952Z,6.83
2019-04-29T06:23:19.050Z,6.90
2019-04-29T06:28:46.888Z,7.10
2019-04-29T06:34:03.200Z,7.15
2019-04-29T06:39:13.398Z,7.21
2019-04-29T06:44:40.394Z,7.37
2019-04-29T06:50:11.598Z,7.72
2019-04-29T06:55:25.775Z,7.63
2019-04-29T07:00:42.560Z,7.96
2019-04-29T07:06:27.791Z,8.04
2019-04-29T07:12:02.078Z,8.15
2019-04-29T07:17:28.049Z,8.26
2019-04-29T07:23:02.997Z,8.70
2019-04-29T07:28:20.431Z,8.71
2019-04-29T07:33:44.318Z,8.71
2019-04-29T07:39:50.065Z,9.04
2019-04-29T07:51:41.239Z,9.08
2019-04-29T07:57:12.481Z,9.51
2019-04-29T08:03:15.430Z,9.71
2019-04-29T08:09:20.630Z,9.71
2019-04-29T08:15:31.746Z,10.23
2019-04-29T08:21:15.989Z,10.00
2019-04-29T08:27:15.861Z,10.17
2019-04-29T08:39:11.871Z,10.69
2019-04-29T09:10:28.373Z,11.93
2019-04-29T09:28:27.145Z,12.34
2019-04-29T09:34:26.802Z,12.52
2019-04-29T09:40:35.784Z,12.79
2019-04-29T09:57:36.139Z,13.13
2019-04-29T10:21:36.106Z,13.34
2019-04-29T10:27:00.203Z,13.33
2019-04-29T10:32:54.787Z,13.61
2019-04-29T10:38:33.087Z,13.53
2019-04-29T10:44:19.661Z,13.20
2019-04-29T10:50:24.764Z,13.33
2019-04-29T10:56:05.547Z,13.35
2019-04-29T11:02:13.654Z,13.53
2019-04-29T11:19:10.977Z,13.77
2019-04-29T11:25:23.991Z,13.86
2019-04-29T11:31:14.395Z,13.87
2019-04-29T11:37:13.764Z,14.15
2019-04-29T11:42:43.210Z,14.33
2019-04-29T11:48:22.871Z,14.17
2019-04-29T12:00:25.742Z,14.42
2019-04-29T12:05:46.153Z,14.21
2019-04-29T12:17:33.168Z,14.48
2019-04-29T12:23:15.760Z,14.50
2019-04-29T12:28:56.174Z,14.44
2019-04-29T12:34:39.257Z,14.63
2019-04-29T12:40:19.462Z,14.63
2019-04-29T12:46:17.686Z,14.60
2019-04-29T13:29:35.812Z,14.28
2019-04-29T14:08:14.762Z,13.69
2019-04-29T14:18:35.075Z,13.57
2019-04-29T15:05:34.524Z,13.14
2019-04-29T15:17:44.701Z,13.23
2019-04-29T15:42:59.431Z,13.39
2019-04-29T15:54:35.558Z,13.21
2019-04-29T16:06:19.286Z,12.67
2019-04-29T16:11:36.630Z,12.39
2019-04-29T16:16:52.215Z,12.38
2019-04-29T16:22:19.791Z,12.19
2019-04-29T16:27:48.924Z,11.90
2019-04-29T16:33:13.910Z,11.68
2019-04-29T16:38:31.313Z,11.71
2019-04-29T16:44:01.675Z,11.79
2019-04-29T16:49:19.246Z,11.73
2019-04-29T16:54:33.912Z,11.59
2019-04-29T16:59:54.000Z,11.66
2019-04-29T17:05:16.069Z,11.46
2019-04-29T17:10:50.063Z,11.57
2019-04-29T17:16:03.017Z,11.49
2019-04-29T17:21:24.695Z,11.49
2019-04-29T17:27:19.552Z,11.35
2019-04-29T17:33:27.778Z,11.41
2019-04-29T17:35:13.886Z,12.88
2019-04-29T17:38:50.827Z,11.42
2019-04-29T17:44:34.301Z,11.40
2019-04-29T17:50:29.946Z,11.33
2019-04-29T17:56:06.398Z,11.31
2019-04-29T18:01:36.813Z,11.34
2019-04-29T18:12:27.503Z,11.25
2019-04-29T18:18:00.280Z,11.17
2019-04-29T18:23:11.211Z,11.13
2019-04-29T18:28:32.790Z,11.04
2019-04-29T19:29:06.270Z,11.07
2019-04-29T19:40:42.831Z,10.89
2019-04-29T19:46:59.007Z,10.84
2019-04-29T19:52:45.792Z,10.81
2019-04-29T19:57:59.592Z,10.45
2019-04-29T20:45:35.345Z,10.54
2019-04-29T20:50:40.819Z,10.57
2019-04-29T20:55:49.791Z,10.55
2019-04-29T21:01:02.823Z,10.55
2019-04-29T21:06:03.149Z,10.60
2019-04-29T21:11:16.134Z,10.52
2019-04-29T21:16:29.142Z,10.51
2019-04-29T21:21:36.769Z,10.57
2019-04-29T21:27:09.338Z,10.54
2019-04-29T21:32:45.488Z,10.49
2019-04-29T21:38:47.039Z,10.42
2019-04-29T21:44:14.999Z,10.43
2019-04-29T21:49:45.307Z,10.43
2019-04-29T21:54:54.606Z,10.35
2019-04-29T22:00:15.632Z,10.32
2019-04-29T22:05:36.281Z,10.32
2019-04-29T22:11:07.441Z,10.32
2019-04-29T22:16:28.641Z,10.36
2019-04-29T22:21:57.191Z,10.31
2019-04-29T22:27:16.190Z,10.27
2019-04-29T22:32:58.054Z,10.31
2019-04-29T22:38:18.706Z,10.36
2019-04-29T22:43:48.277Z,10.39
2019-04-29T22:49:06.797Z,10.30
2019-04-29T22:54:17.691Z,10.38
2019-04-29T22:59:22.990Z,10.28
2019-04-29T23:04:42.206Z,10.35
2019-04-29T23:09:57.530Z,10.41
2019-04-29T23:15:10.057Z,10.37
2019-04-29T23:20:45.546Z,10.33
2019-04-29T23:25:59.866Z,10.35
2019-04-29T23:31:13.627Z,10.31
2019-04-29T23:36:31.728Z,10.32
